Time;durP1;ratioP1;P1;durP2;ratioP2;P2;SDS_P1;SDS_P2;PMS_P1;PMS_P2;Temp;Humidity;BMP_temperature;BMP_pressure;BME280_temperature;BME280_humidity;BME280_pressure;Samples;Min_cycle;Max_cycle;Signal;HPM_P1;HPM_P2
2022/12/26 00:01:55;;;;;;;31.45;24.50;;;;;;;7.13;75.56;99265.84;5108569;28;20100;-72
2022/12/26 00:04:23;;;;;;;33.30;24.10;;;;;;;6.51;75.55;99166.59;5108086;28;20040;-72
2022/12/26 00:06:51;;;;;;;29.77;24.52;;;;;;;7.12;75.62;99277.31;5107797;28;20040;-73
2022/12/26 00:09:17;;;;;;;30.73;23.65;;;;;;;7.13;75.58;99271.97;5107305;28;20288;-72
2022/12/26 00:11:44;;;;;;;29.00;24.08;;;;;;;7.12;75.54;99264.13;5108116;28;20239;-73
2022/12/26 00:14:13;;;;;;;34.88;26.13;;;;;;;7.09;75.69;99265.13;5107431;28;20040;-72
2022/12/26 00:16:42;;;;;;;33.97;25.75;;;;;;;7.06;75.80;99260.84;5106620;28;20036;-72
2022/12/26 00:19:09;;;;;;;30.98;25.70;;;;;;;7.06;75.80;99279.28;5106963;28;20089;-73
2022/12/26 00:21:36;;;;;;;30.88;25.35;;;;;;;6.31;75.82;99143.72;5107207;28;20044;-73
2022/12/26 00:24:05;;;;;;;29.77;23.50;;;;;;;7.07;75.83;99288.06;5106410;28;20107;-73
2022/12/26 00:26:35;;;;;;;29.63;24.15;;;;;;;7.07;75.91;99288.91;5107500;28;20189;-72
2022/12/26 00:29:02;;;;;;;27.80;23.65;;;;;;;6.70;75.91;99228.97;5107401;28;20115;-73
2022/12/26 00:31:31;;;;;;;29.00;22.63;;;;;;;7.06;75.75;99310.06;5107159;28;20063;-73
2022/12/26 00:33:58;;;;;;;31.55;25.58;;;;;;;6.62;75.78;99209.97;5105350;28;20036;-73
2022/12/26 00:36:28;;;;;;;31.55;24.35;;;;;;;7.05;75.94;99276.72;5106028;28;20300;-73
2022/12/26 00:38:57;;;;;;;27.38;23.73;;;;;;;6.83;75.81;99241.66;5106253;28;20085;-73
2022/12/26 00:41:25;;;;;;;29.45;23.65;;;;;;;7.04;76.06;99275.00;5105646;28;20032;-73
2022/12/26 00:43:52;;;;;;;32.25;24.52;;;;;;;6.79;75.85;99246.16;5106042;28;20043;-73
2022/12/26 00:46:20;;;;;;;30.42;24.17;;;;;;;7.02;76.08;99295.28;5106018;28;20047;-73
2022/12/26 00:48:47;;;;;;;28.58;23.23;;;;;;;7.00;76.24;99287.44;5106341;28;20048;-72
2022/12/26 00:51:15;;;;;;;31.27;24.05;;;;;;;7.01;76.13;99291.78;5106678;28;20047;-72
2022/12/26 00:53:42;;;;;;;28.27;23.30;;;;;;;6.99;76.32;99272.56;5106108;28;20040;-73
2022/12/26 00:56:09;;;;;;;30.08;24.67;;;;;;;6.66;76.32;99235.28;5106625;28;20192;-73
2022/12/26 00:58:37;;;;;;;30.73;24.00;;;;;;;7.00;76.48;99278.69;5104482;28;20066;-72
2022/12/26 01:01:09;;;;;;;30.58;24.70;;;;;;;7.01;76.64;99269.88;5105511;28;20180;-73
2022/12/26 01:03:36;;;;;;;27.92;24.30;;;;;;;7.03;76.28;99273.28;5105679;28;20311;-73
2022/12/26 01:06:04;;;;;;;29.17;24.02;;;;;;;7.02;76.25;99285.59;5104680;28;20040;-72
2022/12/26 01:08:31;;;;;;;33.80;26.15;;;;;;;7.02;76.47;99285.59;5104839;28;20036;-72
2022/12/26 01:10:57;;;;;;;29.27;22.75;;;;;;;7.02;76.53;99301.41;5106639;28;20040;-74
2022/12/26 01:13:24;;;;;;;32.72;24.55;;;;;;;7.02;76.57;99305.84;5105189;28;20048;-73
2022/12/26 01:15:54;;;;;;;31.45;26.20;;;;;;;7.02;76.85;99304.06;5105652;28;20086;-73
2022/12/26 01:18:22;;;;;;;30.65;25.35;;;;;;;7.05;76.87;99316.25;5105739;28;20047;-73
2022/12/26 01:20:49;;;;;;;32.38;24.10;;;;;;;7.03;76.83;99308.41;5105600;28;20040;-73
2022/12/26 01:23:16;;;;;;;32.78;25.30;;;;;;;7.05;76.74;99305.69;5105656;28;20296;-73
2022/12/26 01:25:43;;;;;;;33.80;25.23;;;;;;;7.06;76.78;99304.78;5104769;28;20208;-73
2022/12/26 01:28:10;;;;;;;32.92;24.88;;;;;;;7.04;76.56;99301.34;5106179;28;20040;-72
2022/12/26 01:30:37;;;;;;;33.13;25.35;;;;;;;7.04;76.67;99301.34;5106600;28;20036;-72
2022/12/26 01:33:05;;;;;;;33.83;26.35;;;;;;;7.04;76.68;99289.03;5104790;28;20060;-73
2022/12/26 01:35:32;;;;;;;38.55;30.45;;;;;;;7.04;76.62;99304.00;5106331;28;20051;-73
2022/12/26 01:37:59;;;;;;;39.03;30.05;;;;;;;6.52;76.64;99218.31;5105780;28;20046;-73
2022/12/26 01:40:26;;;;;;;35.55;27.17;;;;;;;7.05;76.72;99305.69;5104824;28;20040;-73
2022/12/26 01:42:53;;;;;;;34.10;24.42;;;;;;;7.03;76.82;99307.53;5105616;28;20346;-73
2022/12/26 01:45:26;;;;;;;28.55;22.33;;;;;;;7.03;76.97;99304.91;5108508;28;20047;-73
2022/12/26 01:47:59;;;;;;;26.40;19.95;;;;;;;7.00;76.97;99305.91;5108782;28;20039;-73
2022/12/26 01:50:45;;;;;;;23.80;20.67;;;;;;;6.99;77.41;99312.09;5110163;28;20086;-73
2022/12/26 01:53:17;;;;;;;24.52;19.85;;;;;;;7.00;76.88;99307.69;5107380;28;20089;-73
2022/12/26 01:55:49;;;;;;;21.35;18.77;;;;;;;6.23;76.68;99177.38;5109234;28;20062;-73
2022/12/26 01:58:21;;;;;;;22.98;18.77;;;;;;;6.96;76.98;99304.31;5108442;28;20141;-73
2022/12/26 02:00:49;;;;;;;19.83;16.70;;;;;;;6.93;76.60;99319.38;5109141;28;20048;-75
2022/12/26 02:06:01;;;;;;;21.33;17.77;;;;;;;6.88;76.92;99303.75;5108862;28;20043;-74
2022/12/26 02:08:33;;;;;;;23.83;20.40;;;;;;;6.88;76.86;99309.03;5108746;28;20093;-75
2022/12/26 02:11:08;;;;;;;21.27;17.65;;;;;;;6.17;76.73;99210.06;5108563;28;20289;-75
2022/12/26 02:13:36;;;;;;;23.05;18.13;;;;;;;6.89;76.78;99310.75;5108770;28;20222;-73
2022/12/26 02:16:04;;;;;;;20.60;17.90;;;;;;;6.88;76.89;99318.72;5108829;28;20063;-72
2022/12/26 02:18:31;;;;;;;21.52;17.67;;;;;;;6.86;76.90;99307.38;5108468;28;20040;-73
2022/12/26 02:21:10;;;;;;;23.10;19.00;;;;;;;6.84;76.88;99317.13;5107945;28;20052;-72
2022/12/26 02:24:06;;;;;;;24.30;19.02;;;;;;;6.84;77.20;99319.75;5108662;28;20036;-73
2022/12/26 02:27:07;;;;;;;21.92;16.75;;;;;;;6.83;77.31;99305.72;5107476;28;20051;-73
2022/12/26 02:30:04;;;;;;;21.40;18.27;;;;;;;6.83;77.34;99305.72;5105644;28;20109;-73
2022/12/26 02:32:51;;;;;;;23.02;18.38;;;;;;;6.65;77.12;99286.22;5107191;28;20051;-73
2022/12/26 02:35:31;;;;;;;22.92;17.58;;;;;;;6.82;77.09;99305.78;5107236;28;20040;-75
2022/12/26 02:38:12;;;;;;;22.67;18.80;;;;;;;6.82;76.97;99309.28;5107346;28;20056;-75
2022/12/26 02:40:49;;;;;;;21.67;17.45;;;;;;;6.83;76.88;99294.34;5108401;28;20209;-75
2022/12/26 02:43:25;;;;;;;22.00;18.23;;;;;;;6.82;76.99;99293.47;5108419;28;20285;-75
2022/12/26 02:48:57;;;;;;;20.67;16.80;;;;;;;6.79;77.04;99288.31;5108103;28;20288;-75
2022/12/26 03:14:10;;;;;;;24.27;19.58;;;;;;;6.74;77.40;99295.53;5107602;28;20101;-75
2022/12/26 03:19:23;;;;;;;22.63;17.42;;;;;;;6.72;77.41;99308.75;5107568;28;20070;-73
2022/12/26 03:21:52;;;;;;;25.45;20.52;;;;;;;6.69;77.54;99300.13;5106003;28;20045;-75
2022/12/26 03:24:21;;;;;;;25.70;19.42;;;;;;;6.73;77.49;99307.84;5107327;28;20040;-74
2022/12/26 03:26:52;;;;;;;24.30;19.08;;;;;;;6.71;77.42;99307.06;5106762;28;20066;-75
2022/12/26 03:32:07;;;;;;;26.70;19.67;;;;;;;6.52;77.33;99285.00;5106976;28;20051;-72
2022/12/26 03:34:37;;;;;;;27.05;18.65;;;;;;;6.70;77.55;99336.09;5106901;28;20196;-72
2022/12/26 03:37:27;;;;;;;24.10;17.95;;;;;;;6.71;77.80;99320.22;5106561;28;20060;-72
2022/12/26 04:19:59;;;;;;;25.55;19.30;;;;;;;6.55;78.02;99339.31;5105177;28;20056;-73
2022/12/26 04:45:05;;;;;;;27.40;20.95;;;;;;;6.39;78.40;99331.16;5105211;28;20050;-72
2022/12/26 04:47:33;;;;;;;26.05;19.52;;;;;;;5.99;78.40;99266.03;5106013;28;20230;-73
2022/12/26 04:50:14;;;;;;;25.02;18.23;;;;;;;6.36;78.70;99345.28;5106209;28;20031;-73
2022/12/26 04:53:00;;;;;;;26.52;18.70;;;;;;;6.37;78.59;99343.53;5106018;28;20192;-73
2022/12/26 04:55:28;;;;;;;25.77;20.25;;;;;;;6.36;78.60;99337.41;5105980;28;20280;-73
2022/12/26 04:57:55;;;;;;;30.98;22.30;;;;;;;6.37;78.90;99348.78;5105654;28;20247;-73
2022/12/26 05:00:26;;;;;;;28.83;21.48;;;;;;;6.28;79.22;99347.38;5105350;28;20040;-73
2022/12/26 05:11:16;;;;;;;22.77;18.50;;;;;;;6.12;79.68;99345.38;5104671;28;20044;-73
2022/12/26 05:13:43;;;;;;;25.63;19.33;;;;;;;6.09;79.77;99347.19;5104820;28;20089;-73
2022/12/26 05:29:57;;;;;;;29.92;19.50;;;;;;;6.03;79.84;99344.78;5109984;28;20052;-73
2022/12/26 05:35:11;;;;;;;28.08;19.83;;;;;;;6.03;79.90;99355.31;5108747;28;20058;-73
2022/12/26 05:37:37;;;;;;;24.02;17.45;;;;;;;6.05;79.66;99357.88;5109252;28;20051;-73
2022/12/26 05:40:05;;;;;;;24.15;18.40;;;;;;;6.06;79.55;99360.47;5110069;28;20048;-73
2022/12/26 05:42:32;;;;;;;24.55;18.90;;;;;;;5.13;79.54;99206.09;5109928;28;20052;-73
2022/12/26 05:44:59;;;;;;;25.42;18.42;;;;;;;6.06;79.39;99365.72;5108808;28;20044;-73
2022/12/26 05:47:27;;;;;;;24.85;18.80;;;;;;;6.04;79.51;99364.06;5108883;28;20043;-73
2022/12/26 05:49:54;;;;;;;24.77;18.35;;;;;;;6.05;79.54;99371.91;5109417;28;20040;-73
2022/12/26 05:52:20;;;;;;;24.92;19.38;;;;;;;6.03;79.53;99376.34;5109489;28;20040;-73
2022/12/26 05:54:47;;;;;;;23.92;18.20;;;;;;;6.04;79.74;99372.81;5109180;28;20062;-73
2022/12/26 05:57:14;;;;;;;25.15;20.27;;;;;;;6.03;79.71;99376.34;5109369;28;20123;-73
2022/12/26 05:59:41;;;;;;;26.63;19.27;;;;;;;6.00;79.80;99389.63;5109684;28;20192;-73
2022/12/26 06:02:07;;;;;;;26.27;20.42;;;;;;;6.01;79.98;99387.84;5109401;28;20040;-73
2022/12/26 06:04:38;;;;;;;27.38;20.38;;;;;;;6.00;80.16;99381.72;5109672;28;20048;-73
2022/12/26 06:07:05;;;;;;;28.80;19.58;;;;;;;6.00;80.08;99376.47;5108356;28;20227;-73
2022/12/26 06:09:32;;;;;;;26.13;19.63;;;;;;;5.64;80.35;99310.28;5108197;28;20040;-73
2022/12/26 06:11:59;;;;;;;30.05;21.00;;;;;;;5.99;80.24;99379.16;5108093;28;20044;-73
2022/12/26 06:14:25;;;;;;;23.27;18.30;;;;;;;5.98;80.23;99382.69;5108182;28;20296;-73
2022/12/26 06:16:52;;;;;;;25.55;18.40;;;;;;;6.01;80.17;99377.31;5109127;28;20089;-73
2022/12/26 06:19:19;;;;;;;24.70;18.40;;;;;;;6.03;80.11;99375.50;5109064;28;20051;-73
2022/12/26 06:21:47;;;;;;;27.25;20.30;;;;;;;6.04;80.16;99379.84;5108692;28;20105;-73
2022/12/26 06:24:14;;;;;;;28.90;20.77;;;;;;;6.04;80.22;99369.31;5108867;28;20044;-73
2022/12/26 06:26:41;;;;;;;29.23;19.23;;;;;;;5.78;80.39;99318.53;5107794;28;20051;-73
2022/12/26 06:29:09;;;;;;;27.10;20.40;;;;;;;4.55;80.57;99128.47;5108483;28;20040;-73
2022/12/26 06:31:36;;;;;;;25.42;20.05;;;;;;;5.99;80.69;99373.91;5107517;28;20068;-73
2022/12/26 06:34:03;;;;;;;26.05;19.85;;;;;;;5.76;80.61;99336.13;5108642;28;20040;-73
2022/12/26 06:36:31;;;;;;;27.85;20.65;;;;;;;5.58;80.50;99307.84;5109005;28;20048;-73
2022/12/26 06:39:00;;;;;;;26.75;19.35;;;;;;;6.03;80.83;99384.25;5108998;28;20101;-73
2022/12/26 06:41:27;;;;;;;25.80;19.30;;;;;;;6.00;80.65;99381.72;5109337;28;20059;-73
2022/12/26 06:43:54;;;;;;;27.05;20.25;;;;;;;6.00;80.62;99387.00;5108747;28;20076;-73
2022/12/26 06:46:23;;;;;;;22.65;17.98;;;;;;;5.90;80.57;99366.34;5107741;28;20051;-73
2022/12/26 06:48:50;;;;;;;29.02;21.02;;;;;;;6.01;80.67;99382.59;5108334;28;20035;-73
2022/12/26 06:51:19;;;;;;;25.38;19.58;;;;;;;6.01;80.59;99391.34;5108436;28;20085;-73
2022/12/26 06:53:46;;;;;;;26.75;19.67;;;;;;;6.00;80.71;99381.72;5108688;28;20052;-73
2022/12/26 06:56:16;;;;;;;26.60;19.25;;;;;;;6.00;80.69;99394.88;5108595;28;20040;-73
2022/12/26 06:58:43;;;;;;;26.80;19.08;;;;;;;5.64;80.55;99322.56;5107614;28;20299;-73
2022/12/26 07:01:14;;;;;;;23.83;18.38;;;;;;;6.00;80.58;99394.03;5107525;28;20089;-73
2022/12/26 07:03:41;;;;;;;22.92;18.55;;;;;;;5.99;80.66;99395.81;5107273;28;20048;-73
2022/12/26 07:06:12;;;;;;;24.13;18.33;;;;;;;6.00;80.60;99399.28;5108446;28;20040;-73
2022/12/26 07:08:39;;;;;;;23.98;18.20;;;;;;;5.99;80.46;99410.72;5108417;28;20048;-73
2022/12/26 07:11:15;;;;;;;21.35;16.83;;;;;;;5.97;80.81;99409.91;5108364;28;20044;-73
2022/12/26 07:13:42;;;;;;;23.40;17.92;;;;;;;5.98;80.28;99398.47;5107085;28;20040;-73
2022/12/26 07:16:09;;;;;;;23.67;18.23;;;;;;;6.00;80.62;99404.56;5106971;28;20051;-73
2022/12/26 07:18:36;;;;;;;24.17;18.52;;;;;;;6.00;80.43;99408.03;5108206;28;20047;-73
2022/12/26 07:21:05;;;;;;;20.52;16.63;;;;;;;6.00;80.49;99408.03;5108002;28;20052;-73
2022/12/26 07:23:32;;;;;;;21.38;16.83;;;;;;;5.99;80.54;99403.69;5107731;28;20044;-73
2022/12/26 07:25:59;;;;;;;24.50;19.15;;;;;;;5.98;80.64;99401.13;5106885;28;20173;-73
2022/12/26 07:28:27;;;;;;;22.02;16.95;;;;;;;5.96;80.64;99406.44;5106989;28;20367;-73
2022/12/26 07:30:54;;;;;;;23.17;18.15;;;;;;;5.42;80.64;99311.94;5107525;28;20346;-73
2022/12/26 07:33:22;;;;;;;24.52;18.60;;;;;;;6.00;80.58;99408.03;5107242;28;20064;-73
2022/12/26 07:35:48;;;;;;;27.38;19.08;;;;;;;5.99;80.63;99416.84;5107343;28;20193;-73
2022/12/26 07:38:15;;;;;;;23.33;18.05;;;;;;;5.94;80.66;99410.03;5107141;28;20070;-74
2022/12/26 07:40:42;;;;;;;23.95;17.85;;;;;;;5.91;80.80;99408.38;5107365;28;20091;-73
2022/12/26 07:43:09;;;;;;;22.95;18.70;;;;;;;5.67;80.76;99377.66;5107191;28;20052;-73
2022/12/26 07:45:37;;;;;;;25.02;18.83;;;;;;;5.89;80.82;99415.47;5107876;28;20035;-73
2022/12/26 07:48:04;;;;;;;21.25;17.65;;;;;;;5.87;80.89;99419.91;5107295;28;20050;-73
2022/12/26 07:50:31;;;;;;;25.73;18.48;;;;;;;5.88;80.78;99431.28;5106379;28;20071;-73
2022/12/26 07:52:59;;;;;;;20.88;17.13;;;;;;;5.88;80.63;99434.78;5106481;28;20079;-73
2022/12/26 07:55:25;;;;;;;19.45;17.20;;;;;;;5.87;80.82;99426.94;5107020;28;20040;-74
2022/12/26 07:57:53;;;;;;;21.08;16.25;;;;;;;5.84;80.65;99412.13;5106935;28;20059;-74
2022/12/26 08:00:20;;;;;;;20.40;16.27;;;;;;;5.81;80.64;99425.38;5107073;28;20044;-73
2022/12/26 08:02:50;;;;;;;19.85;17.17;;;;;;;5.81;80.71;99433.28;5107098;28;20293;-73
2022/12/26 08:05:19;;;;;;;19.83;15.85;;;;;;;5.78;80.60;99439.50;5106496;28;20082;-74
2022/12/26 08:07:47;;;;;;;20.27;16.30;;;;;;;5.21;80.74;99391.50;5107032;28;20085;-73
2022/12/26 08:10:14;;;;;;;18.95;16.23;;;;;;;5.50;80.82;99412.41;5107403;28;20036;-74
2022/12/26 08:12:41;;;;;;;19.55;16.27;;;;;;;5.68;80.85;99443.34;5106562;28;20036;-74
2022/12/26 08:15:10;;;;;;;20.17;15.95;;;;;;;5.68;80.88;99442.50;5106840;28;20058;-73
2022/12/26 08:17:36;;;;;;;21.95;17.70;;;;;;;5.70;80.92;99440.66;5106620;28;20040;-73
2022/12/26 08:20:06;;;;;;;22.02;16.77;;;;;;;5.70;80.71;99444.16;5106604;28;20063;-73
2022/12/26 08:22:33;;;;;;;19.92;16.20;;;;;;;5.71;80.86;99431.88;5105809;28;20043;-73
2022/12/26 08:25:00;;;;;;;19.27;17.15;;;;;;;4.96;80.86;99321.38;5105976;28;20044;-74
2022/12/26 08:27:27;;;;;;;19.88;16.38;;;;;;;5.68;80.98;99448.59;5105662;28;20040;-74
2022/12/26 08:29:53;;;;;;;21.08;16.88;;;;;;;5.66;81.25;99450.44;5106777;28;20043;-73
2022/12/26 08:32:20;;;;;;;22.02;17.42;;;;;;;5.61;81.40;99448.88;5106317;28;20063;-73
2022/12/26 08:34:47;;;;;;;22.42;18.52;;;;;;;5.42;81.27;99420.56;5105659;28;20047;-73
2022/12/26 08:37:15;;;;;;;20.65;17.42;;;;;;;5.57;81.30;99453.38;5106611;28;20204;-73
2022/12/26 08:39:42;;;;;;;21.42;15.80;;;;;;;5.58;81.27;99451.59;5106926;28;20046;-73
2022/12/26 08:42:09;;;;;;;22.70;19.50;;;;;;;5.53;81.54;99462.28;5106813;28;20115;-73
2022/12/26 08:44:36;;;;;;;20.50;16.58;;;;;;;5.52;81.84;99454.44;5106716;28;20047;-73
2022/12/26 08:47:03;;;;;;;19.30;15.63;;;;;;;5.51;81.62;99455.34;5106853;28;20089;-73
2022/12/26 08:49:30;;;;;;;26.17;17.98;;;;;;;5.52;81.75;99460.56;5105491;28;20197;-73
2022/12/26 08:51:56;;;;;;;21.92;19.08;;;;;;;5.53;81.70;99458.78;5105359;28;20312;-73
2022/12/26 08:54:25;;;;;;;20.48;17.33;;;;;;;5.55;81.86;99463.09;5105954;28;20107;-74
2022/12/26 08:56:52;;;;;;;20.50;16.98;;;;;;;5.56;81.67;99461.31;5106167;28;20044;-74
2022/12/26 08:59:19;;;;;;;22.52;18.23;;;;;;;5.56;81.61;99448.16;5105794;28;20041;-74
2022/12/26 09:01:46;;;;;;;21.15;17.27;;;;;;;5.56;81.57;99453.41;5106469;28;20044;-74
2022/12/26 09:04:13;;;;;;;23.60;19.80;;;;;;;5.54;81.61;99450.84;5106190;28;20048;-73
2022/12/26 09:06:40;;;;;;;24.77;19.08;;;;;;;5.57;81.67;99453.38;5106514;28;20036;-75
2022/12/26 09:09:10;;;;;;;21.60;17.08;;;;;;;5.59;81.55;99455.94;5106139;28;20039;-74
2022/12/26 09:11:39;;;;;;;22.65;18.65;;;;;;;5.53;81.45;99440.38;5106579;28;20054;-75
2022/12/26 09:14:06;;;;;;;23.70;18.27;;;;;;;5.42;81.32;99409.19;5106374;28;20036;-74
2022/12/26 09:16:37;;;;;;;22.20;18.02;;;;;;;5.68;81.32;99453.88;5106422;28;20047;-74
2022/12/26 09:19:05;;;;;;;24.73;20.58;;;;;;;5.70;81.62;99454.69;5106106;28;20044;-74
2022/12/26 09:21:33;;;;;;;28.35;20.02;;;;;;;5.72;81.57;99452.84;5106017;28;20048;-74
2022/12/26 09:24:01;;;;;;;24.02;19.33;;;;;;;5.35;81.41;99382.25;5105294;28;20048;-74
2022/12/26 09:26:29;;;;;;;24.20;20.00;;;;;;;5.54;81.40;99406.16;5106189;28;20052;-74
2022/12/26 09:28:58;;;;;;;23.40;19.20;;;;;;;5.77;81.61;99435.16;5104825;28;20067;-74
2022/12/26 09:31:28;;;;;;;21.65;17.52;;;;;;;5.78;81.47;99433.38;5105905;28;20044;-74
2022/12/26 09:33:55;;;;;;;25.20;19.52;;;;;;;5.78;81.61;99428.97;5105915;28;20054;-74
2022/12/26 09:36:24;;;;;;;24.52;20.25;;;;;;;5.78;81.54;99425.50;5105931;28;20040;-74
2022/12/26 09:38:52;;;;;;;27.13;20.85;;;;;;;5.76;81.41;99422.06;5104651;28;20048;-74
2022/12/26 09:41:34;;;;;;;21.98;17.73;;;;;;;5.73;81.76;99433.53;5106046;28;20055;-75
2022/12/26 09:44:10;;;;;;;22.50;18.05;;;;;;;5.73;81.95;99430.06;5105892;28;20196;-74
2022/12/26 09:46:44;;;;;;;19.25;16.65;;;;;;;5.49;81.83;99386.19;5105572;28;20039;-74
2022/12/26 09:49:16;;;;;;;20.83;16.88;;;;;;;5.12;81.65;99337.50;5105692;28;20296;-74
2022/12/26 09:51:48;;;;;;;23.73;17.60;;;;;;;5.73;81.39;99432.69;5105544;28;20051;-75
2022/12/26 09:54:22;;;;;;;23.02;18.05;;;;;;;5.31;81.34;99411.31;5105948;28;20093;-74
2022/12/26 09:56:50;;;;;;;23.20;17.75;;;;;;;5.76;81.41;99436.06;5106116;28;20066;-74
2022/12/26 09:59:20;;;;;;;22.15;18.13;;;;;;;5.60;81.46;99403.31;5105954;28;20043;-75
2022/12/26 10:01:47;;;;;;;23.67;19.00;;;;;;;5.01;81.07;99311.59;5104855;28;20047;-74
2022/12/26 10:04:22;;;;;;;25.67;20.17;;;;;;;5.84;81.27;99433.16;5105263;28;20098;-74
2022/12/26 10:06:56;;;;;;;24.55;19.10;;;;;;;5.85;81.38;99419.09;5108114;28;20104;-74
2022/12/26 10:09:49;;;;;;;27.23;21.08;;;;;;;5.90;81.78;99419.81;5109696;28;20066;-75
2022/12/26 10:12:35;;;;;;;24.48;20.70;;;;;;;5.91;81.47;99413.63;5109760;28;20051;-75
2022/12/26 10:15:15;;;;;;;24.90;19.75;;;;;;;5.95;81.59;99419.63;5109557;28;20100;-74
2022/12/26 10:17:50;;;;;;;26.13;20.05;;;;;;;5.98;81.12;99425.66;5109354;28;20040;-74
2022/12/26 10:20:27;;;;;;;21.98;18.10;;;;;;;6.02;81.29;99419.38;5108171;28;20040;-74
2022/12/26 10:23:08;;;;;;;24.23;18.63;;;;;;;6.05;81.30;99421.88;5109232;28;20040;-74
2022/12/26 10:25:42;;;;;;;24.30;20.52;;;;;;;6.05;81.20;99408.72;5108805;28;20195;-75
2022/12/26 10:28:18;;;;;;;26.30;20.50;;;;;;;6.05;81.33;99419.25;5107862;28;20036;-74
2022/12/26 10:30:49;;;;;;;29.17;21.63;;;;;;;6.09;81.08;99410.34;5108292;28;20050;-74
2022/12/26 10:33:20;;;;;;;25.55;20.38;;;;;;;6.10;81.13;99409.44;5107687;28;20121;-74
2022/12/26 10:35:48;;;;;;;25.33;21.30;;;;;;;6.13;80.97;99420.75;5108496;28;20040;-74
2022/12/26 10:38:25;;;;;;;28.23;22.45;;;;;;;6.16;81.11;99412.75;5107487;28;20054;-74
2022/12/26 10:40:56;;;;;;;25.15;20.05;;;;;;;6.20;81.21;99419.63;5108422;28;20104;-74
2022/12/26 10:43:28;;;;;;;25.70;21.27;;;;;;;6.22;81.06;99407.25;5108334;28;20044;-75
2022/12/26 10:46:28;;;;;;;24.27;20.00;;;;;;;6.27;81.25;99407.94;5108530;28;20039;-74
2022/12/26 10:48:55;;;;;;;24.48;19.77;;;;;;;6.15;80.87;99374.19;5082894;28;20056;-75
2022/12/26 10:51:22;;;;;;;23.52;20.10;;;;;;;6.32;80.80;99408.63;5090734;28;20046;-75
2022/12/26 10:53:51;;;;;;;24.35;21.35;;;;;;;6.36;80.62;99397.09;5108208;28;20216;-74
2022/12/26 10:56:18;;;;;;;24.45;21.08;;;;;;;6.37;80.63;99399.66;5107865;28;20043;-74
2022/12/26 10:58:45;;;;;;;25.60;20.23;;;;;;;5.87;80.45;99309.44;5107193;28;20236;-74
2022/12/26 11:01:35;;;;;;;23.60;20.20;;;;;;;6.46;80.86;99398.47;5108271;28;20036;-75
2022/12/26 11:04:03;;;;;;;27.55;22.70;;;;;;;6.40;80.45;99385.53;5107981;28;20085;-75
2022/12/26 11:06:33;;;;;;;24.35;20.33;;;;;;;6.49;80.44;99390.44;5108080;28;20292;-74
2022/12/26 11:09:00;;;;;;;23.80;19.80;;;;;;;6.49;80.39;99379.91;5108396;28;20043;-75
2022/12/26 11:11:44;;;;;;;23.73;20.38;;;;;;;6.51;80.33;99372.81;5107640;28;20203;-74
2022/12/26 11:14:29;;;;;;;24.27;20.85;;;;;;;6.53;80.67;99381.50;5107042;28;20119;-74
2022/12/26 11:16:59;;;;;;;23.23;19.75;;;;;;;6.38;80.32;99347.88;5106509;28;20044;-74
2022/12/26 11:19:28;;;;;;;24.13;20.45;;;;;;;6.56;80.17;99368.22;5107968;28;20040;-74
2022/12/26 11:21:54;;;;;;;24.08;19.80;;;;;;;6.58;80.10;99371.66;5108054;28;20055;-75
2022/12/26 11:24:21;;;;;;;23.00;20.15;;;;;;;6.60;80.18;99361.94;5107877;28;20048;-74
2022/12/26 11:26:48;;;;;;;23.17;20.35;;;;;;;5.37;79.63;99178.06;5107577;28;20044;-74
2022/12/26 11:29:17;;;;;;;24.52;20.73;;;;;;;6.64;80.03;99365.28;5107733;28;20052;-75
2022/12/26 11:31:53;;;;;;;22.80;20.35;;;;;;;6.63;80.12;99369.69;5106696;28;20303;-75
2022/12/26 11:34:31;;;;;;;23.98;19.58;;;;;;;6.64;80.20;99352.97;5108065;28;20162;-74
2022/12/26 11:36:58;;;;;;;24.65;20.35;;;;;;;6.67;80.04;99342.34;5107522;28;20051;-74
2022/12/26 11:39:28;;;;;;;23.90;19.35;;;;;;;6.70;79.92;99336.09;5107129;28;20044;-74
2022/12/26 11:41:55;;;;;;;22.70;18.92;;;;;;;6.47;79.98;99286.09;5106642;28;20082;-75
2022/12/26 11:44:26;;;;;;;25.27;20.70;;;;;;;6.69;80.11;99335.22;5106739;28;20052;-74
2022/12/26 11:46:57;;;;;;;22.33;19.92;;;;;;;6.62;80.12;99310.06;5108109;28;20048;-75
2022/12/26 11:49:33;;;;;;;23.65;20.30;;;;;;;6.67;80.39;99323.03;5107326;28;20039;-74
2022/12/26 11:52:03;;;;;;;24.80;22.02;;;;;;;6.66;80.05;99327.44;5106601;28;20052;-74
2022/12/26 11:54:34;;;;;;;21.75;18.70;;;;;;;6.72;80.36;99321.06;5106707;28;20040;-75
2022/12/26 11:57:11;;;;;;;23.25;19.52;;;;;;;6.60;80.19;99284.69;5106770;28;20048;-74
2022/12/26 11:59:39;;;;;;;25.88;22.08;;;;;;;6.87;80.06;99322.28;5106076;28;20047;-74
2022/12/26 12:02:27;;;;;;;24.02;21.02;;;;;;;6.96;80.49;99316.63;5106783;28;20044;-74
2022/12/26 12:04:59;;;;;;;27.67;22.67;;;;;;;6.97;80.00;99315.72;5107346;28;20047;-74
2022/12/26 12:07:49;;;;;;;28.20;23.00;;;;;;;7.00;80.08;99305.03;5106243;28;20338;-74
2022/12/26 12:10:41;;;;;;;23.38;20.85;;;;;;;7.02;80.07;99317.22;5107716;28;20047;-74
2022/12/26 12:13:18;;;;;;;24.17;20.30;;;;;;;6.89;79.82;99289.69;5106976;28;20044;-74
2022/12/26 12:15:54;;;;;;;23.02;20.50;;;;;;;7.12;79.78;99319.47;5106686;28;20211;-74
2022/12/26 12:18:37;;;;;;;25.70;22.27;;;;;;;7.15;79.82;99314.94;5105912;28;20040;-74
2022/12/26 12:21:22;;;;;;;24.98;22.00;;;;;;;7.18;79.76;99325.34;5106441;28;20098;-75
2022/12/26 12:24:17;;;;;;;22.83;20.35;;;;;;;7.18;79.84;99325.34;5106118;28;20048;-75
2022/12/26 12:26:53;;;;;;;22.73;19.00;;;;;;;7.21;79.82;99325.22;5107526;28;20040;-75
2022/12/26 12:29:33;;;;;;;25.02;20.75;;;;;;;7.24;79.81;99338.28;5089294;28;20043;-75
2022/12/26 12:32:09;;;;;;;28.80;24.75;;;;;;;7.30;79.72;99327.47;5107106;28;20060;-74
2022/12/26 12:35:00;;;;;;;26.02;22.52;;;;;;;7.34;79.64;99328.25;5105971;28;20055;-74
2022/12/26 12:37:38;;;;;;;24.35;21.73;;;;;;;7.16;79.64;99292.94;5105650;28;20288;-74
2022/12/26 12:40:20;;;;;;;25.70;22.33;;;;;;;7.23;79.51;99285.63;5107204;28;20040;-74
2022/12/26 12:42:54;;;;;;;25.85;22.30;;;;;;;7.43;79.31;99321.72;5106592;28;20169;-74
2022/12/26 12:45:27;;;;;;;27.90;22.60;;;;;;;6.89;79.30;99238.75;5106962;28;20043;-74
2022/12/26 12:48:16;;;;;;;29.35;24.17;;;;;;;7.46;79.23;99322.44;5106163;28;20059;-74
2022/12/26 12:50:51;;;;;;;27.38;23.20;;;;;;;6.69;79.22;99189.53;5107355;28;20048;-74
2022/12/26 12:53:32;;;;;;;25.15;22.45;;;;;;;7.45;79.48;99318.09;5107215;28;20040;-74
2022/12/26 12:56:11;;;;;;;26.45;21.75;;;;;;;7.47;79.33;99313.59;5105762;28;20300;-74
2022/12/26 12:58:54;;;;;;;26.67;21.48;;;;;;;7.48;79.26;99315.31;5106547;28;20101;-74
2022/12/26 13:01:25;;;;;;;24.73;21.17;;;;;;;7.51;79.17;99316.97;5104770;28;20050;-74
2022/12/26 13:03:59;;;;;;;26.63;22.55;;;;;;;7.30;79.13;99266.84;5104813;28;20040;-74
2022/12/26 13:06:30;;;;;;;26.00;22.27;;;;;;;7.54;79.25;99306.28;5105466;28;20239;-74
2022/12/26 13:09:05;;;;;;;25.30;22.50;;;;;;;7.58;79.29;99318.41;5105892;28;20036;-74
2022/12/26 13:11:38;;;;;;;25.92;23.10;;;;;;;7.58;79.24;99299.94;5105795;28;20050;-74
2022/12/26 13:14:11;;;;;;;25.70;21.42;;;;;;;7.59;79.04;99309.59;5104670;28;20066;-74
2022/12/26 13:16:42;;;;;;;21.88;19.40;;;;;;;7.60;79.04;99298.09;5104659;28;20036;-74
2022/12/26 13:19:17;;;;;;;23.30;20.15;;;;;;;7.02;79.00;99195.16;5105932;28;20040;-74
2022/12/26 13:21:44;;;;;;;;;;;;;;;7.52;79.71;99305.50;5106280;28;20044;-74
2022/12/26 13:24:24;;;;;;;23.15;19.83;;;;;;;7.52;79.35;99294.94;5104629;28;19922;-74
2022/12/26 13:26:58;;;;;;;24.63;21.48;;;;;;;7.51;79.49;99283.53;5105736;28;20051;-74
2022/12/26 13:29:35;;;;;;;22.90;20.00;;;;;;;7.52;79.67;99310.78;5105822;28;20040;-74
2022/12/26 13:32:03;;;;;;;22.65;20.35;;;;;;;7.54;79.54;99303.66;5105094;28;20288;-74
2022/12/26 13:34:31;;;;;;;21.10;18.90;;;;;;;7.22;79.67;99233.81;5105859;28;20044;-74
2022/12/26 13:36:59;;;;;;;21.05;18.80;;;;;;;7.58;79.43;99284.13;5104819;28;20308;-74
2022/12/26 13:39:42;;;;;;;22.40;18.00;;;;;;;7.58;79.80;99286.75;5106137;28;20112;-74
2022/12/26 13:45:47;;;;;;;20.88;18.88;;;;;;;7.61;80.11;99302.47;5108996;28;20050;-74
2022/12/26 13:49:06;;;;;;;20.00;17.92;;;;;;;7.65;80.27;99291.72;5102657;28;20231;-75
2022/12/26 13:51:54;;;;;;;19.88;17.88;;;;;;;7.73;80.18;99296.63;5107747;28;20036;-74